Time;durP1;ratioP1;P1;durP2;ratioP2;P2;SDS_P1;SDS_P2;PMS_P1;PMS_P2;Temp;Humidity;BMP_temperature;BMP_pressure;BME280_temperature;BME280_humidity;BME280_pressure;Samples;Min_cycle;Max_cycle;Signal;HPM_P1;HPM_P2
2022/05/10 04:49:30;;;;;;;4.50;2.50;;;;;;;15.48;42.42;95294.63;4716605;28;20122;-69
2022/05/10 04:51:56;;;;;;;4.50;2.20;;;;;;;15.48;41.87;95294.63;5010197;28;20122;-69
2022/05/10 04:54:21;;;;;;;4.70;2.30;;;;;;;15.40;42.67;95288.31;5050777;28;20128;-69
2022/05/10 04:56:46;;;;;;;6.43;2.50;;;;;;;14.92;43.31;95291.13;5021273;28;20036;-69
2022/05/10 04:59:12;;;;;;;4.88;2.60;;;;;;;14.59;44.19;95282.81;5036232;28;20029;-69
2022/05/10 05:01:37;;;;;;;3.95;2.15;;;;;;;14.66;44.58;95296.97;5051275;28;20033;-69
2022/05/10 05:04:04;;;;;;;5.88;2.85;;;;;;;14.68;44.74;95284.59;5068949;28;20058;-69
2022/05/10 05:06:29;;;;;;;6.55;2.80;;;;;;;14.74;44.50;95304.13;5053084;28;20082;-69
2022/05/10 05:08:55;;;;;;;4.22;2.00;;;;;;;14.69;44.98;95303.72;5052874;28;20028;-70
2022/05/10 05:11:21;;;;;;;5.13;2.22;;;;;;;14.68;45.78;95300.28;5049894;28;20033;-69
2022/05/10 05:13:46;;;;;;;5.45;2.40;;;;;;;14.72;46.03;95299.03;5050874;28;20025;-69
2022/05/10 05:16:12;;;;;;;5.28;2.25;;;;;;;14.85;45.70;95295.25;5032840;28;20505;-68
2022/05/10 05:18:37;;;;;;;5.72;2.08;;;;;;;14.94;45.02;95281.38;4999947;28;20477;-70
2022/05/10 05:21:02;;;;;;;5.40;2.38;;;;;;;15.15;44.86;95294.22;5060954;28;20451;-69
2022/05/10 05:23:28;;;;;;;6.15;2.13;;;;;;;15.22;44.36;95291.88;5069211;28;20040;-70
2022/05/10 05:25:55;;;;;;;5.65;2.90;;;;;;;15.35;44.51;95289.72;5036100;28;20017;-68
2022/05/10 05:28:20;;;;;;;3.78;1.88;;;;;;;15.52;43.71;95294.22;5042107;28;20036;-68
2022/05/10 05:30:46;;;;;;;4.05;1.80;;;;;;;15.57;43.46;95291.13;5022951;28;20029;-68
2022/05/10 05:33:11;;;;;;;7.45;2.38;;;;;;;15.76;44.17;95292.84;5032437;28;20033;-69
2022/05/10 05:35:37;;;;;;;3.42;1.88;;;;;;;15.72;43.65;95283.66;5015912;28;20068;-68
2022/05/10 05:38:02;;;;;;;6.35;2.30;;;;;;;15.81;43.14;95291.44;5032658;28;20037;-69
2022/05/10 05:40:28;;;;;;;3.60;2.00;;;;;;;15.91;43.00;95287.94;5056393;28;20543;-69
2022/05/10 05:42:54;;;;;;;4.03;1.80;;;;;;;15.95;41.58;95295.34;5021374;28;20418;-71
2022/05/10 05:45:21;;;;;;;3.15;1.75;;;;;;;15.79;41.73;95289.94;5020092;28;20025;-69
2022/05/10 05:47:46;;;;;;;2.35;1.50;;;;;;;15.85;41.78;95286.72;5031711;28;20082;-69
2022/05/10 05:50:14;;;;;;;3.30;1.45;;;;;;;15.76;42.73;95292.84;5069307;28;20084;-69
2022/05/10 05:52:39;;;;;;;5.95;1.90;;;;;;;15.87;42.16;95290.03;5052001;28;20025;-69
2022/05/10 05:55:40;;;;;;;3.28;1.80;;;;;;;16.11;41.18;95286.84;5054323;28;20032;-71
2022/05/10 05:58:05;;;;;;;3.85;1.88;;;;;;;16.03;42.14;95268.41;4992792;28;20050;-70
2022/05/10 06:00:36;;;;;;;4.70;2.03;;;;;;;15.96;42.59;95283.06;4996698;28;20045;-71
2022/05/10 06:03:03;;;;;;;3.35;1.85;;;;;;;15.89;42.93;95282.03;5011719;28;20034;-70
2022/05/10 06:05:29;;;;;;;3.60;1.75;;;;;;;15.94;42.06;95285.88;5011677;28;20076;-70
2022/05/10 06:07:54;;;;;;;3.10;1.95;;;;;;;16.14;42.28;95283.91;5011504;28;20038;-70
2022/05/10 06:10:20;;;;;;;6.63;2.72;;;;;;;16.25;42.09;95285.50;4978858;28;20371;-70
2022/05/10 06:12:45;;;;;;;6.60;2.30;;;;;;;16.36;41.79;95282.66;4995306;28;20120;-70
2022/05/10 06:15:13;;;;;;;4.28;2.10;;;;;;;16.29;42.00;95269.28;4995119;28;20042;-70
2022/05/10 06:17:39;;;;;;;6.28;2.50;;;;;;;16.51;42.09;95281.13;4995276;28;20460;-70
2022/05/10 06:20:07;;;;;;;5.25;2.70;;;;;;;16.60;41.63;95276.75;4995231;28;20117;-70
2022/05/10 06:22:33;;;;;;;5.95;2.80;;;;;;;16.61;42.45;95285.47;5013561;28;20541;-70
2022/05/10 06:24:58;;;;;;;6.72;3.15;;;;;;;16.68;42.33;95278.63;5019367;28;20025;-70
2022/05/10 06:27:23;;;;;;;6.45;2.58;;;;;;;16.71;41.83;95281.75;5053360;28;20391;-69
2022/05/10 06:29:49;;;;;;;6.90;2.63;;;;;;;16.68;41.69;95278.63;5061080;28;20021;-70
2022/05/10 06:32:22;;;;;;;6.13;2.50;;;;;;;16.66;42.26;95281.41;5053738;28;20594;-70
2022/05/10 06:34:49;;;;;;;12.82;2.47;;;;;;;16.72;41.70;95283.41;5008766;28;20039;-70
2022/05/10 06:40:02;;;;;;;4.13;2.20;;;;;;;17.12;40.88;95284.66;5040306;28;20093;-70
2022/05/10 06:42:28;;;;;;;5.90;2.33;;;;;;;17.30;40.95;95283.75;5038716;28;20025;-70
2022/05/10 06:44:53;;;;;;;4.65;1.95;;;;;;;17.21;41.74;95285.53;5072846;28;20028;-70
2022/05/10 06:47:18;;;;;;;9.35;2.42;;;;;;;17.08;42.37;95283.34;5038217;28;20040;-70
2022/05/10 06:49:44;;;;;;;3.38;2.00;;;;;;;17.13;42.10;95282.84;5053991;28;20032;-70
2022/05/10 06:52:09;;;;;;;7.38;2.17;;;;;;;17.12;42.10;95278.59;5055539;28;20025;-70
2022/05/10 06:54:35;;;;;;;7.63;2.20;;;;;;;17.15;41.96;95280.91;5038770;28;20029;-70
2022/05/10 06:57:00;;;;;;;5.43;2.50;;;;;;;17.20;41.58;95283.91;5068134;28;20032;-70
2022/05/10 06:59:26;;;;;;;5.68;2.22;;;;;;;17.34;41.66;95283.31;5054147;28;20033;-69
2022/05/10 07:01:51;;;;;;;5.30;2.20;;;;;;;17.29;41.50;95285.56;5064360;28;20025;-70
2022/05/10 07:04:16;;;;;;;5.28;2.00;;;;;;;17.42;41.83;95278.09;5037527;28;20090;-69
2022/05/10 07:06:42;;;;;;;9.00;2.30;;;;;;;17.59;41.45;95273.72;5034150;28;20474;-70
2022/05/10 07:09:07;;;;;;;5.93;2.60;;;;;;;17.74;40.69;95271.28;5034641;28;20036;-70
2022/05/10 07:11:33;;;;;;;6.75;2.30;;;;;;;17.84;41.66;95266.75;5035672;28;20032;-70
2022/05/10 07:13:58;;;;;;;3.05;1.98;;;;;;;17.93;40.87;95274.66;5072583;28;20029;-70
2022/05/10 07:16:23;;;;;;;3.33;1.85;;;;;;;18.03;39.78;95265.66;5038161;28;20535;-70
2022/05/10 07:18:49;;;;;;;5.25;1.92;;;;;;;18.15;39.24;95268.78;5037979;28;20033;-70
2022/05/10 07:21:14;;;;;;;6.72;2.05;;;;;;;18.16;37.97;95262.53;5072617;28;20032;-70
2022/05/10 07:23:40;;;;;;;4.13;2.42;;;;;;;18.22;38.34;95261.91;5054596;28;20029;-69
2022/05/10 07:26:05;;;;;;;3.22;1.88;;;;;;;18.36;38.50;95262.22;5054427;28;20029;-70
2022/05/10 07:28:32;;;;;;;5.40;1.80;;;;;;;18.57;37.76;95256.47;5037746;28;20425;-70
2022/05/10 07:30:57;;;;;;;4.78;2.05;;;;;;;18.73;37.27;95270.44;5037992;28;20111;-70
2022/05/10 07:33:24;;;;;;;5.68;2.20;;;;;;;18.82;37.71;95266.03;5072146;28;20094;-70
2022/05/10 07:38:34;;;;;;;5.75;2.75;;;;;;;18.95;37.66;95260.25;5057023;28;20040;-70
2022/05/10 07:40:59;;;;;;;8.13;2.00;;;;;;;19.06;37.35;95262.53;5054210;28;20036;-70
2022/05/10 07:43:25;;;;;;;6.03;2.20;;;;;;;19.09;38.20;95259.56;5071972;28;20021;-69
2022/05/10 07:45:51;;;;;;;7.93;1.98;;;;;;;19.25;37.57;95263.13;5072044;28;20467;-70
2022/05/10 07:48:17;;;;;;;4.35;2.00;;;;;;;19.34;36.85;95259.50;5037549;28;20029;-70
2022/05/10 07:50:42;;;;;;;4.10;2.03;;;;;;;19.41;37.81;95265.69;5044873;28;20521;-70
2022/05/10 07:53:12;;;;;;;6.43;2.13;;;;;;;19.52;37.67;95267.97;5034025;28;20040;-70
2022/05/10 07:55:37;;;;;;;6.65;1.90;;;;;;;19.64;36.22;95261.34;5051863;28;20084;-70
2022/05/10 07:58:06;;;;;;;7.88;2.00;;;;;;;19.82;35.65;95270.84;5033910;28;20498;-70
2022/05/10 08:00:35;;;;;;;5.57;1.80;;;;;;;19.90;35.33;95264.69;5034265;28;20052;-70
2022/05/10 08:03:10;;;;;;;4.75;1.88;;;;;;;19.78;35.30;95254.56;5051609;28;20056;-70
2022/05/10 08:05:36;;;;;;;5.00;1.63;;;;;;;19.86;34.08;95253.66;5051557;28;20037;-70
2022/05/10 08:08:01;;;;;;;3.53;1.55;;;;;;;20.00;34.67;95249.47;5033776;28;20032;-70
2022/05/10 08:10:26;;;;;;;5.97;2.15;;;;;;;19.92;35.50;95247.72;5051489;28;20094;-70
2022/05/10 08:12:52;;;;;;;5.57;1.90;;;;;;;19.96;35.89;95248.19;5033724;28;20041;-70
2022/05/10 08:15:17;;;;;;;5.72;1.38;;;;;;;20.13;33.84;95249.72;5033736;28;20040;-70
2022/05/10 08:17:43;;;;;;;5.00;1.70;;;;;;;20.22;32.06;95247.84;5051317;28;20025;-70
2022/05/10 08:20:09;;;;;;;4.53;1.20;;;;;;;20.29;30.65;95243.50;5051163;28;20082;-70
2022/05/10 08:22:34;;;;;;;3.65;1.10;;;;;;;20.46;27.24;95250.28;5051560;28;20025;-71
2022/05/10 08:25:00;;;;;;;5.13;1.50;;;;;;;20.45;29.31;95243.38;5033572;28;20021;-70
2022/05/10 08:27:26;;;;;;;4.43;1.30;;;;;;;20.48;26.95;95240.38;5033380;28;20199;-70
2022/05/10 08:29:51;;;;;;;5.30;1.45;;;;;;;20.67;27.46;95238.25;5051096;28;20482;-70
2022/05/10 08:32:17;;;;;;;7.40;1.98;;;;;;;20.71;29.42;95245.66;5033313;28;20033;-70
2022/05/10 08:34:42;;;;;;;10.88;2.63;;;;;;;20.77;31.37;95245.94;5033419;28;20035;-70
2022/05/10 08:37:08;;;;;;;7.43;2.10;;;;;;;20.85;29.58;95237.94;5051498;28;20460;-70
2022/05/10 08:39:33;;;;;;;9.45;2.10;;;;;;;20.90;30.30;95236.41;5033137;28;20429;-71
2022/05/10 08:42:01;;;;;;;7.28;2.10;;;;;;;20.77;30.80;95238.84;5016920;28;20087;-70
2022/05/10 08:44:28;;;;;;;5.03;1.88;;;;;;;20.85;29.72;95238.75;5016827;28;20040;-70
2022/05/10 08:46:58;;;;;;;2.97;1.55;;;;;;;20.93;29.33;95233.41;5051337;28;20569;-70
2022/05/10 08:49:40;;;;;;;4.75;1.67;;;;;;;21.08;27.94;95232.59;5016851;28;20524;-70
2022/05/10 08:52:06;;;;;;;7.15;2.00;;;;;;;21.18;29.60;95235.78;5033284;28;20045;-70
2022/05/10 08:54:32;;;;;;;6.43;1.70;;;;;;;21.32;28.00;95245.53;5016882;28;20048;-70
2022/05/10 08:57:09;;;;;;;4.50;1.65;;;;;;;21.47;29.51;95226.22;5016470;28;20110;-70
2022/05/10 09:00:01;;;;;;;5.82;1.75;;;;;;;21.53;29.46;95231.56;5000512;28;20064;-70
2022/05/10 09:02:44;;;;;;;7.13;1.90;;;;;;;21.58;30.15;95226.56;5050677;28;20045;-70
2022/05/10 09:05:33;;;;;;;5.78;1.70;;;;;;;21.76;29.13;95226.19;5033063;28;20047;-70
2022/05/10 09:08:04;;;;;;;4.10;1.67;;;;;;;22.01;27.29;95221.38;5050751;28;20033;-70
2022/05/10 09:10:37;;;;;;;8.23;2.08;;;;;;;21.96;28.20;95220.28;5050458;28;20025;-70
2022/05/10 09:13:13;;;;;;;3.38;1.67;;;;;;;21.94;27.82;95223.09;5016935;28;20062;-71
2022/05/10 09:16:02;;;;;;;5.57;1.70;;;;;;;21.85;28.11;95221.59;5000537;28;20425;-71
2022/05/10 09:18:29;;;;;;;3.78;1.52;;;;;;;21.84;27.86;95210.19;5038109;28;20048;-71
2022/05/10 09:21:26;;;;;;;2.50;1.40;;;;;;;21.77;27.67;95217.22;5032852;28;20029;-71
2022/05/10 09:24:29;;;;;;;4.85;1.73;;;;;;;21.79;29.00;95220.50;5032773;28;20035;-71
2022/05/10 09:27:10;;;;;;;4.72;1.80;;;;;;;21.91;28.38;95212.09;5050912;28;20033;-71
2022/05/10 09:29:41;;;;;;;4.63;1.60;;;;;;;21.86;28.33;95205.53;5034687;28;20056;-71
2022/05/10 09:35:15;;;;;;;3.30;1.70;;;;;;;21.93;28.03;95202.16;5054505;28;20091;-71
2022/05/10 09:38:03;;;;;;;3.70;1.60;;;;;;;21.94;29.38;95201.13;5020867;28;20041;-71
2022/05/10 09:40:32;;;;;;;4.45;1.67;;;;;;;21.95;29.18;95203.56;5036605;28;20107;-72
2022/05/10 09:43:22;;;;;;;5.95;2.00;;;;;;;22.07;29.57;95198.63;5054288;28;20036;-71
2022/05/10 09:46:07;;;;;;;2.97;1.50;;;;;;;22.23;29.92;95187.81;5037034;28;20127;-72
2022/05/10 09:48:32;;;;;;;4.88;1.85;;;;;;;22.35;28.39;95182.03;5036802;28;20064;-71
2022/05/10 09:50:58;;;;;;;3.28;1.70;;;;;;;22.36;28.23;95173.06;5030735;28;20079;-71
2022/05/10 09:53:35;;;;;;;2.40;1.35;;;;;;;22.56;28.11;95187.25;5056285;28;20433;-71
2022/05/10 09:56:05;;;;;;;2.92;1.60;;;;;;;22.60;28.61;95191.19;5056247;28;20043;-71
2022/05/10 09:58:57;;;;;;;3.03;1.55;;;;;;;22.68;28.73;95183.09;5056186;28;20028;-71
2022/05/10 10:01:47;;;;;;;3.17;1.67;;;;;;;22.71;27.85;95187.19;5051920;28;20048;-71
2022/05/10 10:04:13;;;;;;;3.53;1.60;;;;;;;22.75;28.20;95189.22;5055998;28;20540;-72
2022/05/10 10:06:39;;;;;;;3.25;1.60;;;;;;;22.72;27.74;95181.69;5074151;28;20111;-71
2022/05/10 10:09:04;;;;;;;3.13;1.73;;;;;;;22.73;27.58;95180.69;5055991;28;20116;-71
2022/05/10 10:11:31;;;;;;;5.05;1.60;;;;;;;22.73;27.71;95171.91;5055916;28;20032;-72
2022/05/10 10:14:03;;;;;;;3.63;1.48;;;;;;;22.87;27.99;95175.47;5039321;28;20031;-71
2022/05/10 10:16:48;;;;;;;3.83;1.60;;;;;;;22.78;27.63;95166.84;5056329;28;20035;-72
2022/05/10 10:19:25;;;;;;;3.83;1.48;;;;;;;22.77;26.92;95165.22;5073610;28;20028;-71
2022/05/10 10:21:52;;;;;;;2.63;1.40;;;;;;;;;;5073426;28;20079;-71
2022/05/10 10:24:29;;;;;;;3.85;1.80;;;;;;;22.44;29.07;95149.09;5055706;28;20043;-72
2022/05/10 10:26:57;;;;;;;4.13;1.60;;;;;;;22.52;28.14;95155.06;5055763;28;20482;-71
2022/05/10 10:29:34;;;;;;;4.18;1.38;;;;;;;22.53;27.84;95153.25;5039013;28;20033;-71
2022/05/10 10:32:12;;;;;;;2.75;1.60;;;;;;;22.53;27.82;95145.28;5073747;28;20036;-71
2022/05/10 10:34:51;;;;;;;5.00;1.60;;;;;;;22.65;27.91;95151.72;5039647;28;20032;-72
2022/05/10 10:37:24;;;;;;;2.70;1.30;;;;;;;22.63;27.33;95148.44;5055391;28;20033;-72
2022/05/10 10:40:21;;;;;;;3.67;1.60;;;;;;;22.71;26.96;95143.00;5055349;28;20087;-71
2022/05/10 10:43:16;;;;;;;4.25;1.60;;;;;;;22.70;27.44;95138.69;5038472;28;20066;-72
2022/05/10 10:46:18;;;;;;;3.33;1.40;;;;;;;22.82;26.66;95132.88;4994717;28;20048;-72
2022/05/10 10:48:49;;;;;;;5.45;1.60;;;;;;;22.74;26.80;95131.19;5018589;28;20123;-71
2022/05/10 10:51:15;;;;;;;5.15;1.55;;;;;;;22.38;26.65;95124.22;5054988;28;20052;-71
2022/05/10 10:53:41;;;;;;;2.65;1.45;;;;;;;22.41;27.74;95130.97;5038540;28;20433;-71
2022/05/10 10:56:27;;;;;;;4.00;1.70;;;;;;;22.58;28.37;95119.06;5038546;28;20493;-71
2022/05/10 10:59:26;;;;;;;2.20;1.40;;;;;;;22.70;27.38;95116.69;5056435;28;20111;-72
2022/05/10 11:02:08;;;;;;;2.28;1.40;;;;;;;22.94;27.07;95107.47;5037107;28;20631;-72
2022/05/10 11:04:46;;;;;;;4.07;1.80;;;;;;;22.96;28.25;95106.28;5054956;28;20066;-71
2022/05/10 11:07:19;;;;;;;4.72;1.80;;;;;;;23.04;27.32;95102.66;5054805;28;20087;-71
2022/05/10 11:09:56;;;;;;;3.55;1.50;;;;;;;22.99;26.66;95101.63;5072578;28;20084;-71
2022/05/10 11:12:27;;;;;;;3.13;1.60;;;;;;;22.99;26.53;95107.72;5054786;28;20051;-71
2022/05/10 11:14:58;;;;;;;4.18;1.52;;;;;;;23.20;25.12;95102.28;5055168;28;20037;-71
2022/05/10 11:18:00;;;;;;;3.15;1.45;;;;;;;23.08;26.44;95101.25;5072439;28;20037;-71
2022/05/10 11:20:29;;;;;;;2.10;1.65;;;;;;;23.07;26.25;95099.63;5072559;28;20028;-71
2022/05/10 11:23:07;;;;;;;4.97;1.80;;;;;;;23.21;26.38;95092.53;5072441;28;20025;-71
2022/05/10 11:26:03;;;;;;;2.60;1.50;;;;;;;23.29;25.79;95083.56;5054689;28;20116;-72
2022/05/10 11:28:42;;;;;;;2.97;1.52;;;;;;;23.39;25.33;95084.00;5056457;28;20481;-71
2022/05/10 11:31:20;;;;;;;2.35;1.55;;;;;;;23.42;24.87;95083.63;5054329;28;20059;-71
2022/05/10 11:34:07;;;;;;;2.63;1.13;;;;;;;23.37;22.09;95080.75;5054373;28;20048;-71
2022/05/10 11:36:44;;;;;;;2.70;1.30;;;;;;;23.25;23.18;95069.09;5072477;28;20103;-72
2022/05/10 11:39:28;;;;;;;2.03;1.13;;;;;;;23.08;22.66;95071.28;5054393;28;20036;-71
2022/05/10 11:41:59;;;;;;;2.70;1.30;;;;;;;23.18;25.41;95074.38;5071911;28;20383;-71
2022/05/10 11:45:13;;;;;;;3.28;1.45;;;;;;;23.23;25.05;95060.53;5071997;28;20040;-71
2022/05/10 11:48:03;;;;;;;2.25;1.40;;;;;;;23.13;24.41;95059.06;5027952;28;20037;-72
2022/05/10 11:54:25;;;;;;;2.30;1.40;;;;;;;23.33;24.38;95045.88;5064581;28;20476;-71
2022/05/10 11:56:51;;;;;;;3.55;2.03;;;;;;;23.38;24.50;95042.63;5071631;28;20083;-71
2022/05/10 11:59:39;;;;;;;3.90;1.95;;;;;;;23.34;25.29;95044.03;5053831;28;20514;-72
2022/05/10 12:02:04;;;;;;;3.13;1.88;;;;;;;23.36;25.35;95037.53;5054414;28;20036;-72
2022/05/10 12:04:43;;;;;;;2.33;1.40;;;;;;;23.41;24.90;95034.28;5037289;28;20201;-71
2022/05/10 12:07:22;;;;;;;3.35;1.80;;;;;;;23.53;25.38;95027.34;5037550;28;20074;-71
2022/05/10 12:09:57;;;;;;;3.63;1.85;;;;;;;23.60;24.14;95024.72;5071466;28;20035;-72
2022/05/10 12:12:42;;;;;;;4.68;1.50;;;;;;;23.55;22.88;95029.81;5071363;28;20033;-71
2022/05/10 12:24:00;;;;;;;2.88;1.45;;;;;;;22.91;23.24;95013.31;5056193;28;20031;-71
2022/05/10 12:26:51;;;;;;;2.13;1.20;;;;;;;22.92;23.35;95003.53;5071564;28;20039;-71
2022/05/10 12:29:31;;;;;;;3.35;1.40;;;;;;;22.91;22.67;94999.28;5037734;28;20036;-71
2022/05/10 12:32:01;;;;;;;;;;;;;;;22.99;23.64;95003.63;5053476;28;20040;-72
2022/05/10 12:34:40;;;;;;;3.13;1.40;;;;;;;23.02;23.55;94989.97;5053498;28;19966;-71
2022/05/10 12:37:36;;;;;;;2.50;1.20;;;;;;;23.12;23.90;94995.69;5053350;28;20040;-72
2022/05/10 12:40:10;;;;;;;4.50;1.52;;;;;;;23.24;25.58;95003.88;5053132;28;20036;-70
2022/05/10 12:42:52;;;;;;;3.28;1.58;;;;;;;23.37;26.05;95003.88;5070902;28;20044;-71
2022/05/10 12:45:34;;;;;;;66.28;51.70;;;;;;;23.40;25.97;94991.06;5054367;28;20029;-71
2022/05/10 12:48:07;;;;;;;2.97;1.67;;;;;;;23.51;26.11;95002.06;5044492;28;20063;-71
2022/05/10 12:50:38;;;;;;;2.63;1.58;;;;;;;23.40;26.34;94992.88;5038119;28;20044;-71
2022/05/10 12:53:41;;;;;;;4.22;1.50;;;;;;;23.37;27.02;94990.63;5060940;28;20446;-71
2022/05/10 12:56:20;;;;;;;4.47;1.55;;;;;;;23.11;27.07;94989.56;5043970;28;20025;-71
2022/05/10 12:58:48;;;;;;;2.28;1.60;;;;;;;22.88;27.76;94991.72;5039660;28;20513;-70
2022/05/10 13:01:15;;;;;;;6.68;1.60;;;;;;;22.51;29.19;94981.41;5027772;28;20514;-71
2022/05/10 13:03:46;;;;;;;3.97;1.83;;;;;;;22.29;29.74;94967.44;5032595;28;20044;-71
2022/05/10 13:06:11;;;;;;;;;;;;;;;22.33;30.47;94985.56;5029292;28;20037;-70
2022/05/10 13:09:17;;;;;;;3.17;1.57;;;;;;;22.25;30.55;94987.34;5064257;28;19920;-70
2022/05/10 13:12:13;;;;;;;5.82;1.65;;;;;;;21.93;30.69;94982.66;5035709;28;20295;-70
2022/05/10 13:14:46;;;;;;;2.65;1.40;;;;;;;21.78;31.83;94985.38;5054607;28;20433;-70
2022/05/10 13:17:18;;;;;;;4.22;1.75;;;;;;;21.65;32.10;94988.75;5029859;28;20388;-70
2022/05/10 13:19:44;;;;;;;3.97;1.42;;;;;;;21.59;32.37;94985.06;5037001;28;20033;-70
2022/05/10 13:22:10;;;;;;;6.18;1.50;;;;;;;21.58;32.37;94979.94;5046825;28;20040;-70
2022/05/10 13:24:36;;;;;;;2.42;1.70;;;;;;;21.51;32.67;94968.53;5060269;28;20101;-70
2022/05/10 13:27:02;;;;;;;4.13;1.50;;;;;;;21.53;32.88;94983.16;5033749;28;20457;-70
2022/05/10 13:29:42;;;;;;;7.43;1.55;;;;;;;21.51;31.94;94979.91;5028659;28;20037;-70
2022/05/10 13:32:27;;;;;;;3.80;1.48;;;;;;;21.50;32.96;94972.16;5049380;28;20479;-71
2022/05/10 13:34:52;;;;;;;1.90;1.40;;;;;;;21.52;31.85;94972.78;5036491;28;20141;-70
2022/05/10 13:37:29;;;;;;;3.25;1.60;;;;;;;21.46;32.48;94970.91;5036701;28;20044;-70
2022/05/10 13:39:55;;;;;;;3.20;1.60;;;;;;;21.47;32.60;94983.09;5045809;28;20035;-70
2022/05/10 13:42:20;;;;;;;2.90;1.60;;;;;;;21.42;32.61;94970.44;5030505;28;20028;-70
2022/05/10 13:44:46;;;;;;;9.30;1.80;;;;;;;21.44;33.21;94965.81;5039212;28;20021;-70
2022/05/10 13:47:28;;;;;;;3.97;1.60;;;;;;;21.47;33.11;94967.25;5054820;28;20102;-70
2022/05/10 13:49:54;;;;;;;8.85;1.80;;;;;;;21.51;32.29;94971.16;5023551;28;20051;-70
2022/05/10 13:52:32;;;;;;;4.05;1.75;;;;;;;21.46;32.56;94968.28;5007601;28;20482;-70
2022/05/10 13:54:59;;;;;;;3.78;1.60;;;;;;;21.34;32.34;94974.03;5008576;28;20029;-69
2022/05/10 13:57:29;;;;;;;3.35;1.30;;;;;;;21.33;32.74;94966.28;5050022;28;20044;-69
2022/05/10 13:59:57;;;;;;;2.38;1.60;;;;;;;21.49;31.94;94959.97;5021358;28;20033;-69
2022/05/10 14:02:22;;;;;;;2.30;1.60;;;;;;;21.48;31.31;94971.50;5049412;28;20315;-69
2022/05/10 14:04:52;;;;;;;2.72;1.48;;;;;;;21.38;31.90;94964.75;5028410;28;20469;-70
2022/05/10 14:07:23;;;;;;;3.85;1.65;;;;;;;21.39;31.28;94968.19;5033155;28;20025;-69
2022/05/10 14:09:49;;;;;;;7.75;1.50;;;;;;;21.34;31.96;94978.47;5035764;28;20024;-69
2022/05/10 14:12:28;;;;;;;2.53;1.50;;;;;;;21.31;32.53;94969.13;5049856;28;20494;-69
2022/05/10 14:15:17;;;;;;;3.10;1.70;;;;;;;21.30;31.85;94959.56;5049043;28;20129;-69
2022/05/10 14:17:51;;;;;;;4.90;1.50;;;;;;;21.43;31.76;94956.25;5052078;28;20113;-70
2022/05/10 14:20:24;;;;;;;3.17;1.60;;;;;;;21.44;30.84;94962.34;5040277;28;20046;-69
2022/05/10 14:22:57;;;;;;;4.60;1.50;;;;;;;21.28;31.37;94958.09;5038745;28;20228;-69
2022/05/10 14:25:24;;;;;;;5.55;1.63;;;;;;;21.33;30.89;94961.81;5035167;28;20139;-69
2022/05/10 14:28:18;;;;;;;3.03;1.60;;;;;;;21.13;31.42;94974.03;5035918;28;20411;-74
2022/05/10 14:30:48;;;;;;;2.85;1.58;;;;;;;21.11;31.16;94960.19;5027883;28;20059;-69
2022/05/10 14:33:19;;;;;;;2.88;1.60;;;;;;;21.08;31.18;94968.50;5023586;28;20037;-69
2022/05/10 14:35:51;;;;;;;;;;;;;;;21.01;31.37;94970.25;5051831;28;20971;-73
2022/05/10 14:38:21;;;;;;;2.20;1.40;;;;;;;20.85;31.08;94958.91;5054788;28;19929;-70
2022/05/10 14:40:47;;;;;;;3.22;1.58;;;;;;;20.80;31.23;94956.00;5057107;28;20036;-71
2022/05/10 14:43:15;;;;;;;7.28;1.65;;;;;;;20.82;31.58;94955.84;5040175;28;20111;-70
2022/05/10 14:45:45;;;;;;;3.70;1.52;;;;;;;20.83;32.23;94955.63;5032107;28;20040;-70
2022/05/10 14:48:21;;;;;;;;;;;;;;;20.98;32.79;94964.34;5049492;28;20051;-71
2022/05/10 14:50:51;;;;;;;2.83;1.48;;;;;;;20.91;34.88;94963.44;5026888;28;19999;-69
2022/05/10 14:53:18;;;;;;;2.55;1.60;;;;;;;20.84;35.89;94967.84;5045841;28;20506;-70
2022/05/10 14:55:48;;;;;;;4.20;1.80;;;;;;;20.74;36.76;94968.13;5031534;28;20071;-70
2022/05/10 14:58:24;;;;;;;3.45;1.60;;;;;;;20.38;37.33;94967.25;5034636;28;20622;-70
2022/05/10 15:01:10;;;;;;;5.35;1.65;;;;;;;20.09;38.25;94975.00;5010825;28;20033;-71
2022/05/10 15:03:38;;;;;;;2.67;1.63;;;;;;;19.98;37.82;94972.00;5033655;28;20039;-70
2022/05/10 15:06:09;;;;;;;4.60;1.83;;;;;;;19.88;38.21;94968.81;5021720;28;20035;-70
2022/05/10 15:08:35;;;;;;;3.17;1.77;;;;;;;19.86;38.47;94974.25;5034364;28;20059;-70
2022/05/10 15:11:00;;;;;;;3.53;1.70;;;;;;;19.80;39.10;94974.97;5034332;28;20543;-71
2022/05/10 15:13:26;;;;;;;2.45;1.85;;;;;;;19.73;39.22;94979.34;5062573;28;20065;-70
2022/05/10 15:15:57;;;;;;;2.88;2.00;;;;;;;19.57;39.39;94975.81;5018032;28;20511;-70
2022/05/10 15:21:24;;;;;;;4.20;1.73;;;;;;;19.31;40.25;94964.88;5048727;28;20521;-71
2022/05/10 15:23:50;;;;;;;3.95;1.70;;;;;;;19.29;40.20;94975.56;5050529;28;20055;-72
2022/05/10 15:26:20;;;;;;;3.53;1.83;;;;;;;19.16;40.52;94977.97;5042260;28;20113;-71
2022/05/10 15:28:48;;;;;;;3.73;1.70;;;;;;;18.99;40.69;94977.25;5026416;28;20032;-71
2022/05/10 15:31:14;;;;;;;2.78;1.50;;;;;;;19.02;40.09;94984.78;5044949;28;20040;-71
2022/05/10 15:33:39;;;;;;;2.60;1.50;;;;;;;18.99;40.74;94977.25;5044978;28;20498;-72
2022/05/10 15:36:06;;;;;;;3.47;1.85;;;;;;;18.92;40.67;94985.03;5016446;28;20033;-71
2022/05/10 15:38:32;;;;;;;2.67;1.63;;;;;;;18.92;40.81;94987.66;5017703;28;20029;-71
2022/05/10 15:40:57;;;;;;;15.40;2.20;;;;;;;18.82;41.02;94983.63;5051145;28;20039;-72
2022/05/10 15:43:23;;;;;;;5.10;1.58;;;;;;;18.82;40.79;94987.06;5051924;28;20025;-71
2022/05/10 15:45:48;;;;;;;1.80;1.60;;;;;;;18.72;41.02;94979.38;5034636;28;20675;-72
2022/05/10 15:48:16;;;;;;;3.20;1.50;;;;;;;18.75;41.08;94972.97;5052011;28;20476;-71
2022/05/10 15:50:41;;;;;;;1.98;1.60;;;;;;;18.65;41.27;94978.41;5035370;28;20052;-72
2022/05/10 15:53:07;;;;;;;3.28;1.98;;;;;;;18.80;40.32;94977.69;5018847;28;20033;-71
2022/05/10 15:55:32;;;;;;;1.83;1.40;;;;;;;18.76;42.06;94982.50;5051946;28;20025;-71
2022/05/10 15:57:57;;;;;;;9.55;1.80;;;;;;;18.82;43.35;94983.63;5036367;28;20032;-71
2022/05/10 16:00:24;;;;;;;2.50;1.63;;;;;;;18.87;43.76;94978.66;5020646;28;20039;-71
2022/05/10 16:02:51;;;;;;;3.20;1.65;;;;;;;18.88;44.07;94977.66;5037661;28;20517;-71
2022/05/10 16:05:17;;;;;;;2.42;1.80;;;;;;;18.85;45.16;94983.28;5037239;28;20567;-71
2022/05/10 16:07:42;;;;;;;3.08;1.75;;;;;;;18.83;46.17;94978.16;5071586;28;20033;-71
2022/05/10 16:10:08;;;;;;;6.25;1.90;;;;;;;18.87;47.27;94983.91;5033977;28;20137;-71
2022/05/10 16:12:35;;;;;;;2.10;1.60;;;;;;;18.91;47.13;94990.47;5034967;28;20038;-71
2022/05/10 16:15:02;;;;;;;2.10;1.60;;;;;;;18.91;47.46;94982.56;5068592;28;20037;-71
2022/05/10 16:17:28;;;;;;;3.47;1.70;;;;;;;18.91;47.34;94977.31;5048083;28;20043;-71
2022/05/10 16:19:53;;;;;;;3.08;1.90;;;;;;;18.94;46.93;94977.78;5041860;28;20024;-72
2022/05/10 16:22:19;;;;;;;3.55;1.63;;;;;;;18.92;46.53;94978.97;5007863;28;20041;-71
2022/05/10 16:24:44;;;;;;;4.25;1.70;;;;;;;18.83;46.56;94967.63;5024278;28;20108;-72
2022/05/10 16:29:55;;;;;;;4.07;1.70;;;;;;;18.87;48.17;94976.84;5056091;28;20433;-71
2022/05/10 16:32:23;;;;;;;2.38;1.70;;;;;;;18.85;48.47;94970.09;5028244;28;20052;-71
2022/05/10 16:34:49;;;;;;;3.30;2.00;;;;;;;18.80;48.25;94978.50;5029143;28;20509;-72
2022/05/10 16:37:14;;;;;;;2.42;1.70;;;;;;;18.79;48.81;94974.25;5044538;28;20037;-72
2022/05/10 16:39:40;;;;;;;2.63;1.85;;;;;;;18.78;49.82;94980.53;5022189;28;20032;-72
2022/05/10 16:42:11;;;;;;;4.40;2.97;;;;;;;18.69;49.20;94977.09;5023554;28;20028;-72
2022/05/10 16:44:37;;;;;;;;;;;;;;;18.62;49.70;94989.28;5039968;28;20033;-72
2022/05/10 16:47:10;;;;;;;4.95;2.53;;;;;;;18.59;50.04;94980.94;5064788;28;19922;-71
2022/05/10 16:49:36;;;;;;;2.38;1.95;;;;;;;18.58;50.05;94985.34;5039599;28;20040;-72
2022/05/10 16:52:05;;;;;;;2.63;1.70;;;;;;;18.54;49.23;94992.75;5052189;28;20053;-72
2022/05/10 16:54:36;;;;;;;2.63;1.70;;;;;;;18.51;48.88;94987.03;5040804;28;20082;-72
2022/05/10 16:57:02;;;;;;;;;;;;;;;18.47;48.17;94994.47;5051031;28;20040;-75
2022/05/10 16:59:28;;;;;;;3.90;2.05;;;;;;;18.27;46.96;94977.44;5023063;28;19929;-72
2022/05/10 17:01:55;;;;;;;2.45;2.00;;;;;;;18.37;45.02;94995.66;5007451;28;20037;-73
2022/05/10 17:04:21;;;;;;;3.67;1.90;;;;;;;18.37;44.54;94999.09;5069091;28;20060;-71
2022/05/10 17:06:47;;;;;;;2.40;2.13;;;;;;;18.34;46.58;94990.72;5068063;28;20452;-71
2022/05/10 17:09:12;;;;;;;3.42;3.05;;;;;;;18.30;45.06;95004.22;5061992;28;20663;-71